createdAt,value
2023-03-15T00:02:02.375Z,8.65
2023-03-15T00:04:34.775Z,8.62
2023-03-15T00:07:07.082Z,8.64
2023-03-15T00:09:39.377Z,8.56
2023-03-15T00:12:14.086Z,8.63
2023-03-15T00:14:46.362Z,8.71
2023-03-15T00:17:18.685Z,8.72
2023-03-15T00:19:51.122Z,8.83
2023-03-15T00:22:23.438Z,8.78
2023-03-15T00:24:55.693Z,8.79
2023-03-15T00:27:27.927Z,8.73
2023-03-15T00:30:00.233Z,8.72
2023-03-15T00:32:32.522Z,8.72
2023-03-15T00:35:05.298Z,8.70
2023-03-15T00:37:37.672Z,8.59
2023-03-15T00:40:12.381Z,8.69
2023-03-15T00:42:50.378Z,8.69
2023-03-15T00:45:22.968Z,8.81
2023-03-15T00:47:57.440Z,8.86
2023-03-15T00:50:29.701Z,8.90
2023-03-15T00:53:01.918Z,8.99
2023-03-15T00:55:34.238Z,8.99
2023-03-15T00:58:06.464Z,8.88
2023-03-15T01:00:39.242Z,8.88
2023-03-15T01:03:11.541Z,8.64
2023-03-15T01:05:43.801Z,8.65
2023-03-15T01:08:16.034Z,8.58
2023-03-15T01:10:48.294Z,8.41
2023-03-15T01:13:20.541Z,8.36
2023-03-15T01:15:52.853Z,8.27
2023-03-15T01:18:25.576Z,8.20
2023-03-15T01:20:58.689Z,8.12
2023-03-15T01:23:30.951Z,8.06
2023-03-15T01:26:05.623Z,7.93
2023-03-15T01:28:38.156Z,7.90
2023-03-15T01:31:23.904Z,7.86
2023-03-15T01:33:57.826Z,7.84
2023-03-15T01:36:30.134Z,7.78
2023-03-15T01:39:02.588Z,7.72
2023-03-15T01:41:34.912Z,7.69
2023-03-15T01:44:16.755Z,7.69
2023-03-15T01:46:49.060Z,7.64
2023-03-15T01:49:31.110Z,7.64
2023-03-15T01:52:15.311Z,7.64
2023-03-15T01:55:08.559Z,7.62
2023-03-15T01:57:51.520Z,7.59
2023-03-15T02:00:24.382Z,7.55
2023-03-15T02:03:14.428Z,7.51
2023-03-15T02:05:56.807Z,7.34
2023-03-15T02:08:35.790Z,7.36
2023-03-15T02:11:08.184Z,7.33
2023-03-15T02:13:40.759Z,7.33
2023-03-15T02:16:13.154Z,7.31
2023-03-15T02:18:45.479Z,7.31
2023-03-15T02:21:46.332Z,7.33
2023-03-15T02:24:38.301Z,7.28
2023-03-15T02:27:11.061Z,7.22
2023-03-15T02:29:43.432Z,7.19
2023-03-15T02:32:15.744Z,7.10
2023-03-15T02:34:48.002Z,7.10
2023-03-15T02:37:21.463Z,7.07
2023-03-15T02:39:53.735Z,7.06
2023-03-15T02:42:26.626Z,7.04
2023-03-15T02:44:59.118Z,7.04
2023-03-15T02:47:34.359Z,7.00
2023-03-15T02:50:08.319Z,7.01
2023-03-15T02:52:40.674Z,6.97
2023-03-15T02:55:13.218Z,6.84
2023-03-15T02:57:46.076Z,6.92
2023-03-15T03:00:18.890Z,6.85
2023-03-15T03:02:51.231Z,6.85
2023-03-15T03:05:23.909Z,6.90
2023-03-15T03:07:56.291Z,6.87
2023-03-15T03:10:28.668Z,6.85
2023-03-15T03:13:00.980Z,6.86
2023-03-15T03:15:33.284Z,6.85
2023-03-15T03:18:05.869Z,6.81
2023-03-15T03:20:38.160Z,6.79
2023-03-15T03:23:10.446Z,6.77
2023-03-15T03:25:42.736Z,6.77
2023-03-15T03:28:15.007Z,6.74
2023-03-15T03:30:47.536Z,6.76
2023-03-15T03:33:21.274Z,6.75
2023-03-15T03:35:54.648Z,6.79
2023-03-15T03:38:27.009Z,6.77
2023-03-15T03:40:59.307Z,6.75
2023-03-15T03:43:31.636Z,6.74
2023-03-15T03:46:04.819Z,6.68
2023-03-15T03:48:37.195Z,6.66
2023-03-15T03:51:09.536Z,6.61
2023-03-15T03:53:41.831Z,6.54
2023-03-15T03:56:14.184Z,6.48
2023-03-15T03:58:46.438Z,6.43
2023-03-15T04:01:18.812Z,6.43
2023-03-15T04:03:51.313Z,6.43
2023-03-15T04:06:23.642Z,6.37
2023-03-15T04:08:56.024Z,6.38
2023-03-15T04:11:28.622Z,6.34
2023-03-15T04:14:00.901Z,6.32
2023-03-15T04:16:33.227Z,6.29
2023-03-15T04:19:06.397Z,6.24
2023-03-15T04:21:38.762Z,6.23
2023-03-15T04:24:11.045Z,6.19
2023-03-15T04:26:43.349Z,6.14
2023-03-15T04:29:15.704Z,6.14
2023-03-15T04:31:47.996Z,6.10
2023-03-15T04:34:20.332Z,6.11
2023-03-15T04:36:54.806Z,6.11
2023-03-15T04:39:27.156Z,6.09
2023-03-15T04:41:59.473Z,6.16
2023-03-15T04:44:31.768Z,6.17
2023-03-15T04:47:04.277Z,6.18
2023-03-15T04:49:36.849Z,6.17
2023-03-15T04:52:09.394Z,6.17
2023-03-15T04:54:41.948Z,6.18
2023-03-15T04:57:14.283Z,6.19
2023-03-15T04:59:46.554Z,6.16
2023-03-15T05:02:18.897Z,6.09
2023-03-15T05:04:51.254Z,6.11
2023-03-15T05:07:23.593Z,6.07
2023-03-15T05:09:55.902Z,6.02
2023-03-15T05:12:29.369Z,6.01
2023-03-15T05:15:01.767Z,5.97
2023-03-15T05:17:34.109Z,5.96
2023-03-15T05:20:12.810Z,5.94
2023-03-15T05:22:45.194Z,5.93
2023-03-15T05:25:17.737Z,5.90
2023-03-15T05:27:50.084Z,5.89
2023-03-15T05:30:22.371Z,5.90
2023-03-15T05:32:54.728Z,5.89
2023-03-15T05:35:28.494Z,5.96
2023-03-15T05:38:01.434Z,6.03
2023-03-15T05:40:34.343Z,6.04
2023-03-15T05:43:06.692Z,6.06
2023-03-15T05:45:39.834Z,6.03
2023-03-15T05:48:12.117Z,6.06
2023-03-15T05:50:44.458Z,6.10
2023-03-15T05:53:16.874Z,6.09
2023-03-15T05:55:49.206Z,6.15
2023-03-15T05:58:21.544Z,6.13
2023-03-15T06:00:54.024Z,6.07
2023-03-15T06:03:26.394Z,6.12
2023-03-15T06:05:59.784Z,6.13
2023-03-15T06:08:32.159Z,6.21
2023-03-15T06:11:04.884Z,6.21
2023-03-15T06:13:37.321Z,6.12
2023-03-15T06:16:09.797Z,6.27
2023-03-15T06:18:42.126Z,6.38
2023-03-15T06:21:14.579Z,6.11
2023-03-15T06:23:46.991Z,6.34
2023-03-15T06:26:19.680Z,6.50
2023-03-15T06:28:52.049Z,6.64
2023-03-15T06:31:24.476Z,6.61
2023-03-15T06:33:56.898Z,6.81
2023-03-15T06:36:29.241Z,6.96
2023-03-15T06:39:02.988Z,6.95
2023-03-15T06:41:35.312Z,7.00
2023-03-15T06:44:08.030Z,7.11
2023-03-15T06:46:40.516Z,7.17
2023-03-15T06:49:12.886Z,7.24
2023-03-15T06:51:45.567Z,7.08
2023-03-15T06:54:18.146Z,7.22
2023-03-15T06:56:51.213Z,7.45
2023-03-15T06:59:24.412Z,7.53
2023-03-15T07:01:56.767Z,7.70
2023-03-15T07:04:29.224Z,7.87
2023-03-15T07:07:01.576Z,7.80
2023-03-15T07:09:33.930Z,7.97
2023-03-15T07:12:07.059Z,8.15
2023-03-15T07:14:39.361Z,8.02
2023-03-15T07:17:11.841Z,8.04
2023-03-15T07:19:55.894Z,8.25
2023-03-15T07:22:28.474Z,8.47
2023-03-15T07:25:00.869Z,8.20
2023-03-15T07:27:33.440Z,8.57
2023-03-15T07:30:08.264Z,8.53
2023-03-15T07:32:40.759Z,8.63
2023-03-15T07:35:14.182Z,8.71
2023-03-15T07:37:46.768Z,9.47
2023-03-15T07:40:19.470Z,10.32
2023-03-15T07:42:51.909Z,11.07
2023-03-15T07:45:24.230Z,11.37
2023-03-15T07:47:56.713Z,11.43
2023-03-15T07:50:29.417Z,11.39
2023-03-15T07:53:02.044Z,10.95
2023-03-15T07:55:35.822Z,10.82
2023-03-15T07:58:08.213Z,10.42
2023-03-15T08:00:40.852Z,10.28
2023-03-15T08:03:13.267Z,9.95
2023-03-15T08:05:46.067Z,10.07
2023-03-15T08:08:18.492Z,10.27
2023-03-15T08:10:50.866Z,10.31
2023-03-15T08:13:24.409Z,10.18
2023-03-15T08:15:56.813Z,10.02
2023-03-15T08:18:29.237Z,10.08
2023-03-15T08:21:01.917Z,10.37
2023-03-15T08:23:34.364Z,10.45
2023-03-15T08:26:07.409Z,10.59
2023-03-15T08:28:42.025Z,10.55
2023-03-15T08:31:14.701Z,10.71
2023-03-15T08:33:47.085Z,11.02
2023-03-15T08:36:20.241Z,11.36
2023-03-15T08:38:52.797Z,11.41
2023-03-15T08:41:25.294Z,11.63
2023-03-15T08:43:57.595Z,11.69
2023-03-15T08:46:30.252Z,12.20
2023-03-15T08:49:03.750Z,12.73
2023-03-15T08:51:36.196Z,12.98
2023-03-15T08:54:14.302Z,13.26
2023-03-15T08:56:46.866Z,13.27
2023-03-15T08:59:29.013Z,13.27
2023-03-15T09:02:03.930Z,13.66
2023-03-15T09:04:36.369Z,14.07
2023-03-15T09:07:08.879Z,14.68
2023-03-15T09:09:41.622Z,15.75
2023-03-15T09:12:17.240Z,16.89
2023-03-15T09:14:49.634Z,17.58
2023-03-15T09:17:22.292Z,17.15
2023-03-15T09:19:55.109Z,16.45
2023-03-15T09:22:39.174Z,16.26
2023-03-15T09:25:12.119Z,16.40
2023-03-15T09:27:44.491Z,16.77
2023-03-15T09:30:18.068Z,16.70
2023-03-15T09:32:51.461Z,16.46
2023-03-15T09:35:24.182Z,16.18
2023-03-15T09:37:56.638Z,16.02
2023-03-15T09:40:41.223Z,15.77
2023-03-15T09:43:49.017Z,15.47
2023-03-15T09:46:52.892Z,15.40
2023-03-15T09:49:52.338Z,15.07
2023-03-15T09:52:30.137Z,14.69
2023-03-15T09:55:26.789Z,14.48
2023-03-15T09:58:03.244Z,14.74
2023-03-15T10:00:48.356Z,15.12
2023-03-15T10:03:36.409Z,15.59
2023-03-15T10:06:18.156Z,15.93
2023-03-15T10:08:55.570Z,16.24
2023-03-15T10:11:40.883Z,16.56
2023-03-15T10:14:19.174Z,17.14
2023-03-15T10:16:52.611Z,17.62
2023-03-15T10:19:52.357Z,17.83
2023-03-15T10:22:54.817Z,17.55
2023-03-15T10:25:30.428Z,16.90
2023-03-15T10:28:06.518Z,16.64
2023-03-15T10:30:46.155Z,16.43
2023-03-15T10:33:38.564Z,16.52
2023-03-15T10:36:22.524Z,17.18
2023-03-15T10:38:54.834Z,17.88
2023-03-15T10:41:49.631Z,18.27
2023-03-15T10:44:26.269Z,18.55
2023-03-15T10:47:23.022Z,18.77
2023-03-15T10:49:59.256Z,18.87
2023-03-15T10:52:40.835Z,19.22
2023-03-15T10:55:33.245Z,19.00
2023-03-15T10:58:20.973Z,18.94
2023-03-15T11:01:09.865Z,18.90
2023-03-15T11:03:44.363Z,18.54
2023-03-15T11:06:28.886Z,17.95
2023-03-15T11:09:25.553Z,16.79
2023-03-15T11:12:04.919Z,15.99
2023-03-15T11:14:43.669Z,15.78
2023-03-15T11:17:24.590Z,15.76
2023-03-15T11:20:13.200Z,16.04
2023-03-15T11:22:45.487Z,16.16
2023-03-15T11:25:19.213Z,16.29
2023-03-15T11:27:53.756Z,16.34
2023-03-15T11:30:34.427Z,16.35
2023-03-15T11:33:09.585Z,16.31
2023-03-15T11:35:49.678Z,15.88
2023-03-15T11:38:35.633Z,15.76
2023-03-15T11:41:54.075Z,15.27
2023-03-15T11:44:45.676Z,15.00
2023-03-15T11:47:38.558Z,14.90
2023-03-15T11:50:15.329Z,14.90
2023-03-15T11:52:52.136Z,14.90
2023-03-15T11:55:28.342Z,14.90
2023-03-15T11:58:48.019Z,14.72
2023-03-15T12:01:27.658Z,14.68
2023-03-15T12:04:34.007Z,14.75
2023-03-15T12:07:28.097Z,15.03
2023-03-15T12:10:19.335Z,15.12
2023-03-15T12:13:06.105Z,15.51
2023-03-15T12:15:38.475Z,15.71
2023-03-15T12:18:18.480Z,16.05
2023-03-15T12:21:05.655Z,16.21
2023-03-15T12:23:58.362Z,16.21
2023-03-15T12:27:00.237Z,16.65
2023-03-15T12:29:36.343Z,16.83
2023-03-15T12:32:21.776Z,17.00
2023-03-15T12:34:57.436Z,16.87
2023-03-15T12:37:38.998Z,16.55
2023-03-15T12:40:20.720Z,16.09
2023-03-15T12:42:57.526Z,15.73
2023-03-15T12:45:40.162Z,15.57
2023-03-15T12:48:13.340Z,15.42
2023-03-15T12:50:46.104Z,15.39
2023-03-15T12:53:38.577Z,15.21
2023-03-15T12:56:22.979Z,15.31
2023-03-15T12:59:19.972Z,15.54
2023-03-15T13:01:53.054Z,15.58
2023-03-15T13:04:28.748Z,15.40
2023-03-15T13:07:56.725Z,15.20
2023-03-15T13:10:59.057Z,14.28
2023-03-15T13:14:08.558Z,13.83
2023-03-15T13:17:17.450Z,13.90
